createdAt,value
2022-12-01T00:01:12.644Z,5.93
2022-12-01T00:03:39.790Z,4.80
2022-12-01T00:06:18.024Z,5.88
2022-12-01T00:09:07.296Z,4.63
2022-12-01T00:11:35.852Z,4.88
2022-12-01T00:14:03.043Z,5.65
2022-12-01T00:16:30.727Z,5.35
2022-12-01T00:18:58.226Z,5.10
2022-12-01T00:21:26.634Z,5.60
2022-12-01T00:23:55.619Z,5.72
2022-12-01T00:26:23.101Z,6.60
2022-12-01T00:28:55.952Z,5.10
2022-12-01T00:31:23.264Z,5.10
2022-12-01T00:33:50.479Z,5.90
2022-12-01T00:36:17.900Z,5.40
2022-12-01T00:38:44.713Z,5.72
2022-12-01T00:41:11.697Z,5.47
2022-12-01T00:43:39.715Z,5.72
2022-12-01T00:46:07.304Z,5.72
2022-12-01T00:48:34.187Z,6.45
2022-12-01T00:51:01.206Z,7.47
2022-12-01T00:53:28.169Z,6.18
2022-12-01T00:55:55.385Z,7.15
2022-12-01T00:58:23.464Z,8.38
2022-12-01T01:00:58.096Z,8.73
2022-12-01T01:03:25.725Z,7.95
2022-12-01T01:05:52.631Z,7.72
2022-12-01T01:08:19.507Z,8.02
2022-12-01T01:10:48.272Z,8.77
2022-12-01T01:13:15.961Z,8.80
2022-12-01T01:15:42.733Z,9.68
2022-12-01T01:18:12.263Z,9.88
2022-12-01T01:20:39.315Z,9.47
2022-12-01T01:23:06.260Z,9.52
2022-12-01T01:25:33.600Z,10.88
2022-12-01T01:28:00.743Z,9.23
2022-12-01T01:30:27.888Z,9.82
2022-12-01T01:32:55.292Z,10.00
2022-12-01T01:35:22.242Z,10.07
2022-12-01T01:37:50.880Z,9.50
2022-12-01T01:40:18.321Z,9.13
2022-12-01T01:42:45.342Z,9.10
2022-12-01T01:45:24.449Z,9.73
2022-12-01T01:47:53.157Z,8.93
2022-12-01T01:50:25.088Z,8.10
2022-12-01T01:53:04.594Z,8.30
2022-12-01T01:55:34.772Z,7.43
2022-12-01T01:58:04.771Z,7.70
2022-12-01T02:00:31.718Z,6.80
2022-12-01T02:03:00.277Z,6.57
2022-12-01T02:05:32.254Z,6.68
2022-12-01T02:08:00.562Z,7.43
2022-12-01T02:10:47.193Z,7.10
2022-12-01T02:13:46.368Z,7.40
2022-12-01T02:16:31.366Z,7.80
2022-12-01T02:19:10.103Z,6.68
2022-12-01T02:22:03.155Z,8.45
2022-12-01T02:24:51.819Z,8.48
2022-12-01T02:27:27.288Z,7.85
2022-12-01T02:30:06.409Z,8.02
2022-12-01T02:33:06.438Z,8.27
2022-12-01T02:35:49.281Z,9.48
2022-12-01T02:38:35.187Z,8.35
2022-12-01T02:41:20.154Z,8.40
2022-12-01T02:44:01.876Z,8.05
2022-12-01T02:46:35.943Z,6.82
2022-12-01T02:49:10.168Z,7.00
2022-12-01T02:51:40.115Z,7.45
2022-12-01T02:54:07.341Z,7.88
2022-12-01T02:56:34.390Z,6.70
2022-12-01T02:59:01.270Z,7.57
2022-12-01T03:01:46.263Z,7.10
2022-12-01T03:04:32.661Z,7.95
2022-12-01T03:07:35.981Z,9.30
2022-12-01T03:10:24.956Z,6.97
2022-12-01T03:13:21.845Z,8.27
2022-12-01T03:16:03.826Z,9.18
2022-12-01T03:18:43.149Z,8.60
2022-12-01T03:21:16.454Z,10.00
2022-12-01T03:23:47.801Z,7.82
2022-12-01T03:26:19.644Z,8.88
2022-12-01T03:28:51.605Z,9.85
2022-12-01T03:31:23.129Z,10.38
2022-12-01T03:34:02.463Z,10.45
2022-12-01T03:36:53.069Z,10.13
2022-12-01T03:41:56.621Z,10.07
2022-12-01T03:44:36.205Z,10.38
2022-12-01T03:47:31.039Z,11.23
2022-12-01T03:49:59.541Z,11.93
2022-12-01T03:53:02.162Z,11.98
2022-12-01T03:55:33.673Z,13.27
2022-12-01T03:58:20.307Z,11.95
2022-12-01T04:00:53.366Z,10.60
2022-12-01T04:03:25.175Z,12.38
2022-12-01T04:05:52.572Z,11.68
2022-12-01T04:08:19.407Z,10.73
2022-12-01T04:10:46.297Z,10.70
2022-12-01T04:13:22.391Z,11.52
2022-12-01T04:15:51.069Z,12.10
2022-12-01T04:18:18.961Z,11.25
2022-12-01T04:20:49.457Z,11.23
2022-12-01T04:26:04.847Z,9.95
2022-12-01T04:28:31.724Z,9.82
2022-12-01T04:30:58.689Z,9.40
2022-12-01T04:33:25.561Z,9.68
2022-12-01T04:35:59.796Z,11.60
2022-12-01T04:38:30.474Z,11.55
2022-12-01T04:40:58.189Z,12.15
2022-12-01T04:43:25.229Z,10.48
2022-12-01T04:45:52.150Z,9.88
2022-12-01T04:48:19.043Z,9.27
2022-12-01T04:50:48.545Z,9.73
2022-12-01T04:53:15.378Z,10.13
2022-12-01T04:55:42.223Z,9.38
2022-12-01T04:58:09.028Z,11.20
2022-12-01T05:00:37.418Z,8.88
2022-12-01T05:03:04.699Z,10.50
2022-12-01T05:05:31.792Z,10.55
2022-12-01T05:07:59.539Z,10.23
2022-12-01T05:10:26.566Z,9.73
2022-12-01T05:12:53.492Z,10.55
2022-12-01T05:15:20.440Z,11.85
2022-12-01T05:17:47.374Z,10.65
2022-12-01T05:20:38.444Z,9.93
2022-12-01T05:23:06.457Z,8.63
2022-12-01T05:25:34.290Z,9.32
2022-12-01T05:28:01.210Z,9.73
2022-12-01T05:30:28.939Z,9.60
2022-12-01T05:32:55.972Z,9.27
2022-12-01T05:35:22.949Z,11.50
2022-12-01T05:37:49.857Z,10.27
2022-12-01T05:40:16.801Z,11.30
2022-12-01T05:42:43.789Z,10.93
2022-12-01T05:45:10.984Z,9.85
2022-12-01T05:47:37.799Z,9.52
2022-12-01T05:50:06.125Z,10.32
2022-12-01T05:52:36.650Z,9.55
2022-12-01T05:55:07.640Z,9.75
2022-12-01T05:57:34.505Z,10.70
2022-12-01T06:00:01.432Z,9.38
2022-12-01T06:02:39.044Z,11.63
2022-12-01T06:05:06.840Z,9.75
2022-12-01T06:07:35.695Z,10.52
2022-12-01T06:10:03.412Z,10.00
2022-12-01T06:12:30.309Z,11.88
2022-12-01T06:14:57.808Z,11.32
2022-12-01T06:17:24.658Z,10.93
2022-12-01T06:19:51.774Z,11.80
2022-12-01T06:22:18.877Z,11.57
2022-12-01T06:24:45.726Z,10.40
2022-12-01T06:27:12.603Z,9.18
2022-12-01T06:29:42.247Z,10.32
2022-12-01T06:32:09.947Z,9.77
2022-12-01T06:34:36.818Z,11.75
2022-12-01T06:37:03.611Z,9.88
2022-12-01T06:39:30.533Z,10.85
2022-12-01T06:41:57.308Z,9.55
2022-12-01T06:44:24.127Z,11.23
2022-12-01T06:46:52.945Z,9.13
2022-12-01T06:49:20.368Z,9.90
2022-12-01T06:51:47.547Z,9.68
2022-12-01T06:54:15.291Z,9.70
2022-12-01T06:56:43.098Z,9.55
2022-12-01T06:59:10.240Z,9.05
2022-12-01T07:01:37.463Z,9.55
2022-12-01T07:04:04.374Z,11.23
2022-12-01T07:06:32.036Z,10.27
2022-12-01T07:08:58.957Z,9.77
2022-12-01T07:11:26.030Z,9.45
2022-12-01T07:13:55.766Z,11.18
2022-12-01T07:16:23.236Z,9.30
2022-12-01T07:18:50.547Z,10.32
2022-12-01T07:21:17.371Z,10.40
2022-12-01T07:23:44.407Z,9.55
2022-12-01T07:26:13.947Z,9.20
2022-12-01T07:28:40.944Z,9.20
2022-12-01T07:31:26.152Z,10.18
2022-12-01T07:33:53.152Z,8.48
2022-12-01T07:36:20.169Z,9.35
2022-12-01T07:38:47.063Z,9.55
2022-12-01T07:41:16.141Z,9.13
2022-12-01T07:43:43.305Z,8.63
2022-12-01T07:46:23.561Z,8.82
2022-12-01T07:48:52.295Z,10.30
2022-12-01T07:51:19.635Z,8.98
2022-12-01T07:53:48.159Z,9.23
2022-12-01T07:56:15.912Z,8.93
2022-12-01T07:58:42.803Z,9.80
2022-12-01T08:01:14.254Z,9.18
2022-12-01T08:03:42.387Z,9.07
2022-12-01T08:06:10.195Z,8.68
2022-12-01T08:08:39.246Z,8.60
2022-12-01T08:11:11.665Z,7.43
2022-12-01T08:13:39.605Z,8.93
2022-12-01T08:16:07.954Z,8.98
2022-12-01T08:18:36.361Z,9.45
2022-12-01T08:21:04.522Z,8.80
2022-12-01T08:23:31.384Z,8.80
2022-12-01T08:26:07.002Z,9.57
2022-12-01T08:28:36.394Z,7.53
2022-12-01T08:31:14.981Z,9.07
2022-12-01T08:33:42.099Z,8.05
2022-12-01T08:36:09.402Z,9.38
2022-12-01T08:38:36.304Z,8.88
2022-12-01T08:41:05.601Z,7.50
2022-12-01T08:43:56.655Z,9.35
2022-12-01T08:46:19.717Z,10.18
2022-12-01T08:48:46.950Z,9.25
2022-12-01T08:51:15.742Z,7.75
2022-12-01T08:53:47.207Z,9.65
2022-12-01T08:56:24.211Z,7.85
2022-12-01T08:58:51.802Z,8.07
2022-12-01T09:01:19.739Z,7.80
2022-12-01T09:03:47.313Z,8.10
2022-12-01T09:06:17.309Z,9.43
2022-12-01T09:08:44.465Z,8.60
2022-12-01T09:11:14.822Z,9.98
2022-12-01T09:13:43.453Z,9.88
2022-12-01T09:16:18.132Z,8.70
2022-12-01T09:18:46.562Z,7.75
2022-12-01T09:21:22.070Z,10.30
2022-12-01T09:23:49.198Z,9.13
2022-12-01T09:26:18.999Z,8.63
2022-12-01T09:28:56.827Z,9.32
2022-12-01T09:31:24.380Z,10.30
2022-12-01T09:33:59.513Z,9.43
2022-12-01T09:36:26.830Z,8.68
2022-12-01T09:38:53.812Z,7.85
2022-12-01T09:41:37.639Z,10.20
2022-12-01T09:44:14.026Z,9.50
2022-12-01T09:46:49.944Z,8.70
2022-12-01T09:49:24.197Z,8.43
2022-12-01T09:51:54.251Z,8.80
2022-12-01T09:54:21.517Z,8.32
2022-12-01T09:56:53.087Z,9.52
2022-12-01T09:59:31.845Z,9.07
2022-12-01T10:02:03.208Z,9.07
2022-12-01T10:04:39.818Z,9.10
2022-12-01T10:07:14.942Z,8.38
2022-12-01T10:09:57.799Z,9.30
2022-12-01T10:12:27.906Z,9.60
2022-12-01T10:15:18.439Z,8.90
2022-12-01T10:20:56.427Z,8.93
2022-12-01T10:23:49.461Z,7.68
2022-12-01T10:26:42.150Z,7.97
2022-12-01T10:29:28.181Z,8.27
2022-12-01T10:32:04.771Z,7.43
2022-12-01T10:34:38.125Z,8.70
2022-12-01T10:37:05.801Z,8.43
2022-12-01T10:39:43.969Z,7.95
2022-12-01T10:42:22.885Z,8.23
2022-12-01T10:44:50.737Z,9.90
2022-12-01T10:47:21.089Z,9.85
2022-12-01T10:49:48.395Z,9.98
2022-12-01T10:52:34.390Z,8.52
2022-12-01T10:55:02.241Z,8.85
2022-12-01T10:57:31.060Z,8.98
2022-12-01T11:00:05.867Z,8.85
2022-12-01T11:02:33.593Z,9.10
2022-12-01T11:05:04.544Z,8.30
2022-12-01T11:07:43.147Z,8.80
2022-12-01T11:10:35.857Z,9.65
2022-12-01T11:13:17.536Z,8.88
2022-12-01T11:15:56.121Z,9.18
2022-12-01T11:18:36.618Z,7.40
2022-12-01T11:23:54.371Z,8.07
2022-12-01T11:26:28.187Z,8.15
2022-12-01T11:28:59.319Z,8.70
2022-12-01T11:31:41.381Z,10.77
2022-12-01T11:34:23.741Z,9.40
2022-12-01T11:36:56.641Z,9.23
2022-12-01T11:39:30.138Z,10.38
2022-12-01T11:42:06.695Z,10.40
2022-12-01T11:44:50.861Z,11.38
2022-12-01T11:47:24.975Z,9.68
2022-12-01T11:49:56.582Z,10.13
2022-12-01T11:52:31.504Z,9.50
2022-12-01T11:55:06.883Z,8.25
2022-12-01T11:57:39.871Z,10.43
2022-12-01T12:00:18.201Z,9.88
2022-12-01T12:02:57.220Z,9.13
2022-12-01T12:05:35.988Z,10.55
2022-12-01T12:08:39.229Z,9.57
2022-12-01T12:11:21.324Z,9.57
2022-12-01T12:14:07.023Z,10.32
2022-12-01T12:17:19.007Z,10.40
2022-12-01T12:20:08.056Z,9.50
2022-12-01T12:23:00.776Z,9.13
2022-12-01T12:25:38.280Z,10.60
2022-12-01T12:28:23.228Z,11.02
2022-12-01T12:31:23.514Z,10.48
2022-12-01T12:34:23.631Z,9.45
2022-12-01T12:37:27.896Z,12.30
2022-12-01T12:40:22.505Z,9.27
2022-12-01T12:43:21.154Z,11.02
2022-12-01T12:46:14.128Z,11.70
2022-12-01T12:49:19.865Z,9.93
2022-12-01T12:52:10.025Z,9.15
2022-12-01T12:54:39.912Z,9.48
2022-12-01T12:57:29.107Z,8.35
2022-12-01T13:00:14.176Z,8.88
2022-12-01T13:02:46.937Z,9.85
2022-12-01T13:05:16.688Z,10.55
2022-12-01T13:08:10.194Z,10.15
2022-12-01T13:10:54.669Z,9.90
2022-12-01T13:13:42.477Z,9.23
2022-12-01T13:16:25.932Z,10.45
2022-12-01T13:19:13.524Z,11.88
2022-12-01T13:21:43.747Z,11.13
2022-12-01T13:24:22.796Z,10.35
2022-12-01T13:26:55.612Z,12.45
2022-12-01T13:29:24.826Z,11.98
2022-12-01T13:31:53.632Z,12.80
2022-12-01T13:34:33.476Z,10.63
2022-12-01T13:37:00.564Z,13.00
2022-12-01T13:39:35.579Z,11.18
2022-12-01T13:42:18.993Z,12.35
2022-12-01T13:45:01.914Z,12.40
2022-12-01T13:47:47.029Z,12.98
2022-12-01T13:50:45.757Z,12.00
2022-12-01T13:53:13.972Z,10.85
2022-12-01T13:56:17.438Z,13.98
2022-12-01T13:58:47.670Z,14.50
2022-12-01T14:01:20.999Z,12.25
2022-12-01T14:04:02.501Z,15.65
2022-12-01T14:06:39.000Z,14.73
2022-12-01T14:09:17.123Z,15.35
2022-12-01T14:12:05.963Z,15.13
2022-12-01T14:14:38.991Z,14.73
2022-12-01T14:17:07.654Z,15.38
2022-12-01T14:19:47.935Z,15.02
2022-12-01T14:22:33.000Z,14.63
2022-12-01T14:25:00.399Z,14.15
2022-12-01T14:27:40.747Z,14.60
2022-12-01T14:30:45.732Z,13.38
2022-12-01T14:33:43.292Z,13.65
2022-12-01T14:36:14.028Z,12.85
2022-12-01T14:38:42.126Z,12.73
2022-12-01T14:41:18.271Z,13.15
2022-12-01T14:44:04.584Z,12.80
2022-12-01T14:46:55.861Z,13.13
2022-12-01T14:49:32.545Z,12.32
2022-12-01T14:52:06.731Z,14.68
2022-12-01T14:54:46.582Z,12.32
2022-12-01T14:57:18.580Z,13.07
2022-12-01T14:59:45.535Z,13.38
2022-12-01T15:02:13.632Z,11.70
2022-12-01T15:05:06.682Z,13.55
2022-12-01T15:07:39.061Z,13.18
2022-12-01T15:10:15.519Z,14.30
2022-12-01T15:12:42.395Z,14.45
2022-12-01T15:15:24.188Z,14.55
2022-12-01T15:17:53.206Z,16.23
2022-12-01T15:20:37.824Z,16.02
2022-12-01T15:23:15.884Z,15.13
2022-12-01T15:25:44.989Z,14.48
2022-12-01T15:28:18.797Z,13.75
2022-12-01T15:30:52.764Z,13.73
2022-12-01T15:33:34.019Z,14.30
2022-12-01T15:36:04.326Z,14.23
2022-12-01T15:38:36.514Z,13.70
2022-12-01T15:41:28.409Z,13.98
2022-12-01T15:43:58.945Z,13.93
2022-12-01T15:46:34.622Z,15.23
2022-12-01T15:49:15.967Z,13.88
2022-12-01T15:51:43.174Z,15.02
2022-12-01T15:54:22.627Z,14.13
2022-12-01T15:56:58.595Z,14.48
2022-12-01T15:59:35.090Z,13.88
2022-12-01T16:02:20.061Z,15.52
2022-12-01T16:04:48.886Z,15.57
2022-12-01T16:07:15.996Z,14.55
2022-12-01T16:10:04.002Z,15.55
2022-12-01T16:12:37.105Z,14.38
2022-12-01T16:15:14.833Z,14.88
2022-12-01T16:17:51.290Z,16.10
2022-12-01T16:20:34.555Z,15.57
2022-12-01T16:23:11.130Z,14.77
2022-12-01T16:25:47.836Z,14.07
2022-12-01T16:28:27.703Z,14.30
2022-12-01T16:30:55.035Z,15.15
2022-12-01T16:33:24.441Z,14.85
2022-12-01T16:35:52.278Z,15.45
2022-12-01T16:38:22.472Z,14.32
2022-12-01T16:40:55.207Z,15.13
2022-12-01T16:43:24.480Z,16.02
2022-12-01T16:46:00.347Z,16.35
2022-12-01T16:48:27.549Z,16.27
2022-12-01T16:50:54.996Z,15.80
2022-12-01T16:53:21.898Z,14.18
2022-12-01T16:55:55.913Z,15.23
2022-12-01T16:58:23.510Z,14.52
2022-12-01T17:00:54.164Z,14.98
2022-12-01T17:03:23.654Z,14.93
2022-12-01T17:05:50.790Z,12.57
2022-12-01T17:08:17.966Z,14.32
2022-12-01T17:10:49.513Z,14.85
2022-12-01T17:13:17.068Z,13.80
2022-12-01T17:15:48.728Z,14.90
2022-12-01T17:18:17.398Z,13.77
2022-12-01T17:23:22.441Z,16.23
2022-12-01T17:25:49.836Z,15.80
2022-12-01T17:28:17.818Z,14.57
2022-12-01T17:30:44.746Z,14.38
2022-12-01T17:33:11.786Z,15.43
2022-12-01T17:35:39.586Z,15.20
2022-12-01T17:38:07.165Z,15.15
2022-12-01T17:40:34.119Z,13.85
2022-12-01T17:43:01.569Z,13.75
2022-12-01T17:45:28.441Z,15.63
2022-12-01T17:47:55.602Z,12.95
2022-12-01T17:50:24.145Z,14.02
2022-12-01T17:52:50.989Z,14.45
2022-12-01T17:55:17.955Z,14.98
2022-12-01T17:57:44.857Z,14.27
2022-12-01T18:00:14.336Z,14.07
2022-12-01T18:02:41.250Z,14.77
2022-12-01T18:05:08.560Z,14.15
2022-12-01T18:07:35.553Z,12.70
2022-12-01T18:10:02.465Z,13.20
2022-12-01T18:12:29.303Z,12.85
2022-12-01T18:14:56.123Z,14.52
2022-12-01T18:17:22.976Z,12.48
2022-12-01T18:19:49.817Z,12.45
2022-12-01T18:22:16.731Z,13.60
2022-12-01T18:24:43.579Z,14.55
2022-12-01T18:27:10.506Z,12.57
2022-12-01T18:29:37.989Z,13.75
2022-12-01T18:32:05.192Z,12.85
2022-12-01T18:34:32.322Z,12.98
2022-12-01T18:37:02.246Z,12.27
2022-12-01T18:39:29.356Z,13.00
2022-12-01T18:41:56.300Z,13.80
2022-12-01T18:44:23.191Z,12.65
2022-12-01T18:46:50.141Z,12.27
2022-12-01T18:49:17.527Z,12.43
2022-12-01T18:51:44.397Z,13.07
2022-12-01T18:54:13.974Z,11.38
2022-12-01T18:56:40.840Z,11.63
2022-12-01T18:59:09.960Z,12.75
2022-12-01T19:01:43.906Z,10.93
2022-12-01T19:04:11.299Z,10.07
2022-12-01T19:06:39.740Z,12.25
2022-12-01T19:09:09.165Z,11.82
2022-12-01T19:11:37.228Z,11.75
2022-12-01T19:14:04.725Z,11.77
2022-12-01T19:16:32.107Z,10.88
2022-12-01T19:19:00.510Z,11.27
2022-12-01T19:21:27.427Z,11.05
2022-12-01T19:23:54.296Z,11.90
2022-12-01T19:26:22.876Z,11.50
2022-12-01T19:28:49.926Z,11.55
2022-12-01T19:31:24.867Z,10.48
2022-12-01T19:33:55.324Z,11.10
2022-12-01T19:36:27.761Z,10.77
2022-12-01T19:38:57.936Z,11.13
2022-12-01T19:41:25.789Z,12.30
2022-12-01T19:43:54.228Z,10.02
2022-12-01T19:46:23.876Z,9.80
2022-12-01T19:48:56.844Z,10.50
2022-12-01T19:51:27.345Z,10.13
2022-12-01T19:53:54.686Z,10.95
2022-12-01T19:56:22.699Z,11.32
2022-12-01T19:58:49.798Z,10.38
2022-12-01T20:01:18.047Z,10.25
2022-12-01T20:03:48.202Z,11.32
2022-12-01T20:06:17.618Z,10.80
2022-12-01T20:08:45.104Z,11.63
2022-12-01T20:11:12.695Z,11.68
2022-12-01T20:13:41.148Z,12.38
2022-12-01T20:16:10.793Z,10.18
2022-12-01T20:18:38.724Z,12.00
2022-12-01T20:21:19.429Z,9.82
2022-12-01T20:23:48.818Z,10.95
2022-12-01T20:26:18.040Z,10.50
2022-12-01T20:28:50.036Z,11.15
2022-12-01T20:31:23.847Z,10.65
2022-12-01T20:33:53.080Z,9.85
2022-12-01T20:36:22.113Z,10.80
2022-12-01T20:38:49.538Z,11.52
2022-12-01T20:41:16.662Z,10.52
2022-12-01T20:43:43.651Z,11.57
2022-12-01T20:46:12.795Z,10.25
2022-12-01T20:48:39.863Z,10.10
2022-12-01T20:51:08.097Z,9.57
2022-12-01T20:53:35.654Z,10.52
2022-12-01T20:56:07.187Z,10.35
2022-12-01T20:58:37.427Z,10.43
2022-12-01T21:01:15.896Z,10.40
2022-12-01T21:03:44.264Z,10.57
2022-12-01T21:06:13.160Z,10.13
2022-12-01T21:08:41.918Z,11.32
2022-12-01T21:11:41.849Z,10.43
2022-12-01T21:14:19.882Z,12.63
2022-12-01T21:16:49.310Z,11.40
2022-12-01T21:19:44.965Z,11.30
2022-12-01T21:22:14.720Z,11.68
2022-12-01T21:24:43.928Z,12.82
2022-12-01T21:27:17.165Z,11.75
2022-12-01T21:29:50.074Z,13.45
2022-12-01T21:32:19.878Z,13.25
2022-12-01T21:34:47.975Z,13.63
2022-12-01T21:37:25.280Z,14.10
2022-12-01T21:39:56.055Z,12.27
2022-12-01T21:42:26.933Z,10.98
2022-12-01T21:44:56.450Z,12.25
2022-12-01T21:47:29.552Z,13.52
2022-12-01T21:49:59.248Z,13.40
2022-12-01T21:52:41.768Z,13.23
2022-12-01T21:55:14.632Z,12.07
2022-12-01T21:57:47.077Z,15.30
2022-12-01T22:00:36.628Z,12.40
2022-12-01T22:03:09.465Z,13.15
2022-12-01T22:06:01.172Z,12.23
2022-12-01T22:08:35.576Z,13.52
2022-12-01T22:11:18.807Z,14.55
2022-12-01T22:13:52.372Z,13.77
2022-12-01T22:16:56.517Z,12.30
2022-12-01T22:19:37.308Z,13.05
2022-12-01T22:22:09.908Z,12.15
2022-12-01T22:24:41.140Z,13.60
2022-12-01T22:27:35.003Z,14.02
2022-12-01T22:30:19.510Z,13.73
2022-12-01T22:33:00.443Z,15.05
2022-12-01T22:35:34.949Z,14.45
2022-12-01T22:38:08.696Z,13.52
2022-12-01T22:40:58.845Z,14.43
2022-12-01T22:43:28.991Z,13.25
2022-12-01T22:46:07.846Z,15.05
2022-12-01T22:48:41.189Z,13.43
2022-12-01T22:51:14.061Z,13.75
2022-12-01T22:53:42.311Z,13.85
2022-12-01T22:56:26.268Z,13.75
2022-12-01T22:58:54.306Z,15.30
2022-12-01T23:01:24.991Z,15.65
2022-12-01T23:04:13.294Z,14.90
2022-12-01T23:06:53.118Z,15.43
2022-12-01T23:09:21.511Z,15.63
2022-12-01T23:12:01.781Z,15.75
2022-12-01T23:14:29.092Z,14.57
2022-12-01T23:17:06.064Z,15.15
2022-12-01T23:19:34.684Z,17.23
2022-12-01T23:22:02.086Z,15.05
2022-12-01T23:24:33.723Z,15.48
2022-12-01T23:27:01.101Z,14.38
2022-12-01T23:29:29.156Z,16.23
2022-12-01T23:31:56.147Z,16.13
2022-12-01T23:34:23.008Z,17.88
2022-12-01T23:36:51.047Z,16.40
2022-12-01T23:39:20.421Z,15.82
2022-12-01T23:41:51.160Z,16.95
2022-12-01T23:44:40.967Z,16.40
2022-12-01T23:47:20.145Z,14.82
2022-12-01T23:49:48.050Z,15.50
2022-12-01T23:52:19.587Z,15.50
2022-12-01T23:54:47.925Z,16.38
2022-12-01T23:57:23.964Z,17.40
2022-12-01T23:59:54.818Z,16.58
